TRA875N EHAM-LGIR
Flight info
| Callsign | TRA875N |
|---|---|
| Flight time | 3h 3m |
| Altitude | 35000 |
| Route | EDUPO Z739 MISGO DCT DOJOH DCT DODEN DCT NEGIX DCT DINKU DCT BESNI DCT GOMIG DCT RADLY/N0440F370 DCT PODET DCT BOSNA DCT MAVAR DCT BITLA DCT LUSES DCT ATV UL607 GIVIS T514 XAVIS XAVIS1A |
| Aircraft | A21N/M-SBDE2E3FGHIJ1J5M1P2RWXYZ/LB1D1G1 |
Departure
| Time | 2026-04-28 14:46 |
|---|---|
| Airport | Amsterdam Airport Schiphol (EHAM) |
Arrival
| Time | 2026-04-28 17:49 |
|---|---|
| Airport | Heraklion International Nikos Kazantzakis Airport (LGIR) |
| Time | Latitude | Longitude | Altitude | Speed | Heading |
|---|---|---|---|---|---|
| 2026-04-28 14:01 | 52.30429 | 4.76603 | 4 ft | 0 kts | 58° |
| 2026-04-28 14:32 | 52.30421 | 4.76580 | 4 ft | 4 kts | 69° |
| 2026-04-28 14:32 | 52.30418 | 4.76542 | 4 ft | 4 kts | 117° |
| 2026-04-28 14:32 | 52.30424 | 4.76527 | 4 ft | 2 kts | 135° |
| 2026-04-28 14:36 | 52.30420 | 4.76533 | 4 ft | 2 kts | 143° |
| 2026-04-28 14:36 | 52.30395 | 4.76558 | 4 ft | 6 kts | 150° |
| 2026-04-28 14:36 | 52.30343 | 4.76583 | 4 ft | 10 kts | 185° |
| 2026-04-28 14:37 | 52.30285 | 4.76497 | 4 ft | 14 kts | 238° |
| 2026-04-28 14:37 | 52.30229 | 4.76351 | 4 ft | 17 kts | 238° |
| 2026-04-28 14:37 | 52.30162 | 4.76175 | 4 ft | 20 kts | 238° |
| 2026-04-28 14:37 | 52.30084 | 4.75971 | 4 ft | 22 kts | 238° |
| 2026-04-28 14:38 | 52.30002 | 4.75758 | 4 ft | 23 kts | 238° |
| 2026-04-28 14:38 | 52.29916 | 4.75532 | 4 ft | 24 kts | 238° |
| 2026-04-28 14:38 | 52.29839 | 4.75326 | 4 ft | 16 kts | 247° |
| 2026-04-28 14:38 | 52.29867 | 4.75152 | 4 ft | 18 kts | 310° |
| 2026-04-28 14:39 | 52.29949 | 4.74998 | 4 ft | 19 kts | 311° |
| 2026-04-28 14:39 | 52.30041 | 4.74827 | 5 ft | 20 kts | 311° |
| 2026-04-28 14:39 | 52.30137 | 4.74649 | 17 ft | 22 kts | 311° |
| 2026-04-28 14:39 | 52.30244 | 4.74452 | 15 ft | 23 kts | 311° |
| 2026-04-28 14:40 | 52.30345 | 4.74257 | 4 ft | 22 kts | 311° |
| 2026-04-28 14:40 | 52.30378 | 4.74205 | 5 ft | 19 kts | 338° |
| 2026-04-28 14:40 | 52.30605 | 4.74210 | 4 ft | 21 kts | 3° |
| 2026-04-28 14:40 | 52.30751 | 4.74225 | 4 ft | 22 kts | 2° |
| 2026-04-28 14:41 | 52.30905 | 4.74237 | 4 ft | 23 kts | 3° |
| 2026-04-28 14:41 | 52.31067 | 4.74254 | 4 ft | 24 kts | 4° |
| 2026-04-28 14:41 | 52.31236 | 4.74269 | 4 ft | 25 kts | 3° |
| 2026-04-28 14:41 | 52.31364 | 4.74291 | 4 ft | 12 kts | 36° |
| 2026-04-28 14:42 | 52.31393 | 4.74427 | 4 ft | 14 kts | 88° |
| 2026-04-28 14:42 | 52.31397 | 4.74538 | 4 ft | 15 kts | 86° |
| 2026-04-28 14:42 | 52.31463 | 4.74671 | 5 ft | 11 kts | 359° |
| 2026-04-28 14:42 | 52.31533 | 4.74666 | 4 ft | 9 kts | 356° |
| 2026-04-28 14:43 | 52.31550 | 4.74664 | 4 ft | 0 kts | 356° |
| 2026-04-28 14:43 | 52.31559 | 4.74663 | 4 ft | 2 kts | 356° |
| 2026-04-28 14:43 | 52.31563 | 4.74663 | 4 ft | 0 kts | 356° |
| 2026-04-28 14:44 | 52.31567 | 4.74663 | 4 ft | 2 kts | 356° |
| 2026-04-28 14:44 | 52.31590 | 4.74660 | 5 ft | 5 kts | 356° |
| 2026-04-28 14:45 | 52.31633 | 4.74676 | 5 ft | 8 kts | 23° |
| 2026-04-28 14:45 | 52.31667 | 4.74754 | 5 ft | 10 kts | 81° |
| 2026-04-28 14:45 | 52.31670 | 4.74795 | 4 ft | 0 kts | 87° |
| 2026-04-28 14:45 | 52.31671 | 4.74840 | 4 ft | 20 kts | 87° |
| 2026-04-28 14:46 | 52.31693 | 4.75477 | 2 ft | 90 kts | 86° |
| 2026-04-28 14:46 | 52.31739 | 4.76812 | 3 ft | 144 kts | 85° |
| 2026-04-28 14:46 | 52.31777 | 4.78559 | 389 ft | 153 kts | 84° |
| 2026-04-28 14:46 | 52.31833 | 4.80246 | 1014 ft | 149 kts | 78° |
| 2026-04-28 14:47 | 52.32142 | 4.81893 | 1560 ft | 157 kts | 62° |
| 2026-04-28 14:47 | 52.32643 | 4.83577 | 2007 ft | 174 kts | 63° |
| 2026-04-28 14:47 | 52.33243 | 4.85499 | 2348 ft | 206 kts | 63° |
| 2026-04-28 14:47 | 52.33951 | 4.87698 | 2833 ft | 231 kts | 62° |
| 2026-04-28 14:48 | 52.34724 | 4.90068 | 3682 ft | 238 kts | 63° |
| 2026-04-28 14:48 | 52.35531 | 4.92471 | 4599 ft | 244 kts | 63° |
| 2026-04-28 14:48 | 52.36373 | 4.94920 | 5479 ft | 250 kts | 63° |
| 2026-04-28 14:48 | 52.37241 | 4.97402 | 6397 ft | 252 kts | 63° |
| 2026-04-28 14:49 | 52.38100 | 4.99919 | 7240 ft | 256 kts | 68° |
| 2026-04-28 14:49 | 52.38436 | 5.02780 | 8023 ft | 260 kts | 93° |
| 2026-04-28 14:49 | 52.37943 | 5.05625 | 8896 ft | 264 kts | 117° |
| 2026-04-28 14:49 | 52.36825 | 5.08033 | 9831 ft | 268 kts | 130° |
| 2026-04-28 14:50 | 52.35446 | 5.10134 | 10643 ft | 276 kts | 135° |
| 2026-04-28 14:50 | 52.33939 | 5.12277 | 11017 ft | 298 kts | 136° |
| 2026-04-28 14:50 | 52.32310 | 5.14567 | 11390 ft | 318 kts | 136° |
| 2026-04-28 14:50 | 52.30601 | 5.16956 | 12064 ft | 326 kts | 136° |
| 2026-04-28 14:51 | 52.28877 | 5.19371 | 12800 ft | 329 kts | 137° |
| 2026-04-28 14:51 | 52.27259 | 5.22063 | 13514 ft | 335 kts | 128° |
| 2026-04-28 14:51 | 52.25801 | 5.25054 | 14286 ft | 338 kts | 126° |
| 2026-04-28 14:51 | 52.24349 | 5.28087 | 15039 ft | 340 kts | 126° |
| 2026-04-28 14:52 | 52.22870 | 5.31138 | 15737 ft | 344 kts | 126° |
| 2026-04-28 14:52 | 52.21372 | 5.34195 | 16479 ft | 347 kts | 126° |
| 2026-04-28 14:52 | 52.19854 | 5.37283 | 17203 ft | 350 kts | 126° |
| 2026-04-28 14:52 | 52.18319 | 5.40400 | 17844 ft | 355 kts | 126° |
| 2026-04-28 14:53 | 52.16762 | 5.43554 | 18507 ft | 361 kts | 127° |
| 2026-04-28 14:53 | 52.15173 | 5.46764 | 19003 ft | 367 kts | 127° |
| 2026-04-28 14:53 | 52.13559 | 5.50022 | 19581 ft | 371 kts | 127° |
| 2026-04-28 14:53 | 52.11929 | 5.53296 | 20177 ft | 374 kts | 127° |
| 2026-04-28 14:54 | 52.10294 | 5.56589 | 20768 ft | 376 kts | 126° |
| 2026-04-28 14:54 | 52.08650 | 5.59907 | 21348 ft | 379 kts | 127° |
| 2026-04-28 14:54 | 52.06978 | 5.63261 | 21870 ft | 383 kts | 127° |
| 2026-04-28 14:54 | 52.05286 | 5.66590 | 22421 ft | 386 kts | 128° |
| 2026-04-28 14:55 | 52.03525 | 5.69957 | 22948 ft | 390 kts | 128° |
| 2026-04-28 14:55 | 52.01758 | 5.73335 | 23474 ft | 394 kts | 129° |
| 2026-04-28 14:55 | 51.99976 | 5.76728 | 23992 ft | 397 kts | 128° |
| 2026-04-28 14:55 | 51.98176 | 5.80157 | 24440 ft | 400 kts | 128° |
| 2026-04-28 14:56 | 51.96362 | 5.83598 | 24923 ft | 402 kts | 128° |
| 2026-04-28 14:56 | 51.94537 | 5.87043 | 25392 ft | 404 kts | 128° |
| 2026-04-28 14:56 | 51.92697 | 5.90526 | 25759 ft | 409 kts | 128° |
| 2026-04-28 14:56 | 51.90844 | 5.94046 | 26168 ft | 412 kts | 128° |
| 2026-04-28 14:57 | 51.88971 | 5.97595 | 26578 ft | 416 kts | 129° |
| 2026-04-28 14:57 | 51.87725 | 5.99947 | 26831 ft | 418 kts | 129° |
| 2026-04-28 14:57 | 51.85174 | 6.04753 | 27370 ft | 422 kts | 129° |
| 2026-04-28 14:57 | 51.83256 | 6.08350 | 27770 ft | 424 kts | 129° |
| 2026-04-28 14:58 | 51.81326 | 6.11979 | 28165 ft | 426 kts | 129° |
| 2026-04-28 14:58 | 51.79411 | 6.15565 | 28530 ft | 429 kts | 129° |
| 2026-04-28 14:58 | 51.77433 | 6.19281 | 28914 ft | 431 kts | 129° |
| 2026-04-28 14:58 | 51.75472 | 6.22946 | 29271 ft | 434 kts | 129° |
| 2026-04-28 14:59 | 51.73515 | 6.26590 | 29628 ft | 436 kts | 129° |
| 2026-04-28 14:59 | 51.71527 | 6.30291 | 29994 ft | 438 kts | 129° |
| 2026-04-28 14:59 | 51.69528 | 6.34019 | 30294 ft | 442 kts | 129° |
| 2026-04-28 14:59 | 51.67509 | 6.37781 | 30544 ft | 445 kts | 129° |
| 2026-04-28 15:00 | 51.65473 | 6.41567 | 30807 ft | 448 kts | 129° |
| 2026-04-28 15:00 | 51.63424 | 6.45356 | 31083 ft | 450 kts | 129° |
| 2026-04-28 15:00 | 51.61363 | 6.49174 | 31349 ft | 452 kts | 131° |
| 2026-04-28 15:00 | 51.59299 | 6.52992 | 31680 ft | 453 kts | 131° |
| 2026-04-28 15:01 | 51.57232 | 6.56813 | 32031 ft | 453 kts | 131° |
| 2026-04-28 15:01 | 51.55156 | 6.60641 | 32293 ft | 454 kts | 131° |
| 2026-04-28 15:01 | 51.53078 | 6.64458 | 32626 ft | 454 kts | 131° |
| 2026-04-28 15:01 | 51.50998 | 6.68278 | 32834 ft | 457 kts | 131° |
| 2026-04-28 15:02 | 51.48895 | 6.72130 | 33126 ft | 458 kts | 131° |
| 2026-04-28 15:02 | 51.46799 | 6.75969 | 33431 ft | 459 kts | 131° |
| 2026-04-28 15:02 | 51.44687 | 6.79841 | 33715 ft | 459 kts | 131° |
| 2026-04-28 15:02 | 51.42585 | 6.83673 | 34031 ft | 459 kts | 132° |
| 2026-04-28 15:03 | 51.40449 | 6.87499 | 34231 ft | 461 kts | 135° |
| 2026-04-28 15:03 | 51.38179 | 6.91130 | 34416 ft | 462 kts | 136° |
| 2026-04-28 15:03 | 51.35882 | 6.94709 | 34616 ft | 462 kts | 137° |
| 2026-04-28 15:03 | 51.33571 | 6.98276 | 34935 ft | 459 kts | 138° |
| 2026-04-28 15:04 | 51.31272 | 7.01821 | 35153 ft | 459 kts | 138° |
| 2026-04-28 15:04 | 51.26697 | 7.08894 | 35243 ft | 458 kts | 137° |
| 2026-04-28 15:05 | 51.22216 | 7.15807 | 35225 ft | 455 kts | 137° |
| 2026-04-28 15:05 | 51.17637 | 7.22850 | 35195 ft | 458 kts | 137° |
| 2026-04-28 15:06 | 51.13048 | 7.29904 | 35194 ft | 458 kts | 138° |
| 2026-04-28 15:06 | 51.08452 | 7.36919 | 35185 ft | 458 kts | 139° |
| 2026-04-28 15:07 | 51.03839 | 7.43929 | 35189 ft | 458 kts | 138° |
| 2026-04-28 15:07 | 50.99267 | 7.50961 | 35197 ft | 460 kts | 135° |
| 2026-04-28 15:08 | 50.94934 | 7.58447 | 35202 ft | 463 kts | 134° |
| 2026-04-28 15:08 | 50.90585 | 7.66008 | 35203 ft | 464 kts | 134° |
| 2026-04-28 15:09 | 50.86235 | 7.73523 | 35198 ft | 463 kts | 135° |
| 2026-04-28 15:09 | 50.81859 | 7.81029 | 35200 ft | 463 kts | 135° |
| 2026-04-28 15:10 | 50.77478 | 7.88508 | 35201 ft | 463 kts | 135° |
| 2026-04-28 15:10 | 50.73099 | 7.95974 | 35202 ft | 463 kts | 135° |
| 2026-04-28 15:11 | 50.68700 | 8.03432 | 35206 ft | 466 kts | 135° |
| 2026-04-28 15:11 | 50.64281 | 8.10902 | 35202 ft | 466 kts | 136° |
| 2026-04-28 15:12 | 50.59856 | 8.18358 | 35198 ft | 466 kts | 135° |
| 2026-04-28 15:12 | 50.55432 | 8.25822 | 35189 ft | 467 kts | 136° |
| 2026-04-28 15:13 | 50.51003 | 8.33271 | 35200 ft | 466 kts | 136° |
| 2026-04-28 15:13 | 50.46565 | 8.40707 | 35188 ft | 468 kts | 136° |
| 2026-04-28 15:14 | 50.42099 | 8.48141 | 35183 ft | 468 kts | 136° |
| 2026-04-28 15:14 | 50.37626 | 8.55569 | 35176 ft | 468 kts | 136° |
| 2026-04-28 15:15 | 50.33518 | 8.62393 | 35163 ft | 469 kts | 136° |
| 2026-04-28 15:15 | 50.29075 | 8.69769 | 35153 ft | 468 kts | 137° |
| 2026-04-28 15:16 | 50.24581 | 8.77141 | 35146 ft | 468 kts | 137° |
| 2026-04-28 15:16 | 50.20091 | 8.84507 | 35141 ft | 468 kts | 137° |
| 2026-04-28 15:17 | 50.15600 | 8.91870 | 35145 ft | 468 kts | 137° |
| 2026-04-28 15:17 | 50.11110 | 8.99215 | 35155 ft | 468 kts | 137° |
| 2026-04-28 15:18 | 50.06590 | 9.06611 | 35143 ft | 468 kts | 137° |
| 2026-04-28 15:18 | 50.02128 | 9.13905 | 35163 ft | 468 kts | 137° |
| 2026-04-28 15:19 | 49.97618 | 9.21220 | 35161 ft | 470 kts | 137° |
| 2026-04-28 15:19 | 49.93085 | 9.28539 | 35163 ft | 470 kts | 137° |
| 2026-04-28 15:20 | 49.88548 | 9.35844 | 35161 ft | 470 kts | 137° |
| 2026-04-28 15:20 | 49.83985 | 9.43195 | 35149 ft | 470 kts | 138° |
| 2026-04-28 15:21 | 49.79470 | 9.50419 | 35134 ft | 470 kts | 138° |
| 2026-04-28 15:21 | 49.74918 | 9.57692 | 35144 ft | 472 kts | 138° |
| 2026-04-28 15:22 | 49.70322 | 9.65022 | 35137 ft | 472 kts | 138° |
| 2026-04-28 15:22 | 49.65775 | 9.72244 | 35133 ft | 472 kts | 138° |
| 2026-04-28 15:23 | 49.61195 | 9.79489 | 35129 ft | 472 kts | 138° |
| 2026-04-28 15:23 | 49.56614 | 9.86724 | 35118 ft | 472 kts | 138° |
| 2026-04-28 15:24 | 49.52796 | 9.92740 | 35094 ft | 476 kts | 140° |
| 2026-04-28 15:24 | 49.47361 | 10.01229 | 35113 ft | 482 kts | 140° |
| 2026-04-28 15:25 | 49.42674 | 10.08591 | 35112 ft | 482 kts | 139° |
| 2026-04-28 15:25 | 49.38475 | 10.16751 | 35115 ft | 489 kts | 129° |
| 2026-04-28 15:26 | 49.35214 | 10.23839 | 35126 ft | 489 kts | 129° |
| 2026-04-28 15:26 | 49.31245 | 10.32308 | 35134 ft | 489 kts | 130° |
| 2026-04-28 15:27 | 49.27256 | 10.40727 | 35118 ft | 489 kts | 130° |
| 2026-04-28 15:27 | 49.23215 | 10.49208 | 35134 ft | 495 kts | 130° |
| 2026-04-28 15:28 | 49.19159 | 10.57725 | 35166 ft | 495 kts | 130° |
| 2026-04-28 15:28 | 49.15088 | 10.66197 | 35174 ft | 495 kts | 130° |
| 2026-04-28 15:29 | 49.11006 | 10.74689 | 35157 ft | 497 kts | 130° |
| 2026-04-28 15:29 | 49.06914 | 10.83214 | 35155 ft | 498 kts | 130° |
| 2026-04-28 15:30 | 49.02817 | 10.91701 | 35149 ft | 498 kts | 130° |
| 2026-04-28 15:30 | 48.98704 | 11.00182 | 35117 ft | 498 kts | 130° |
| 2026-04-28 15:31 | 48.94576 | 11.08665 | 35124 ft | 499 kts | 130° |
| 2026-04-28 15:31 | 48.90415 | 11.17196 | 35113 ft | 499 kts | 130° |
| 2026-04-28 15:32 | 48.86288 | 11.25601 | 35118 ft | 499 kts | 130° |
| 2026-04-28 15:32 | 48.82104 | 11.34096 | 35093 ft | 499 kts | 130° |
| 2026-04-28 15:33 | 48.77988 | 11.42489 | 35092 ft | 499 kts | 130° |
| 2026-04-28 15:33 | 48.73797 | 11.50986 | 35092 ft | 500 kts | 130° |
| 2026-04-28 15:34 | 48.69651 | 11.59335 | 35083 ft | 500 kts | 131° |
| 2026-04-28 15:34 | 48.65459 | 11.67717 | 35085 ft | 500 kts | 130° |
| 2026-04-28 15:35 | 48.61265 | 11.76113 | 35094 ft | 500 kts | 131° |
| 2026-04-28 15:35 | 48.54989 | 11.88721 | 35104 ft | 501 kts | 130° |
| 2026-04-28 15:36 | 48.50789 | 11.97084 | 35093 ft | 500 kts | 131° |
| 2026-04-28 15:36 | 48.46551 | 12.05467 | 35097 ft | 500 kts | 131° |
| 2026-04-28 15:37 | 48.42334 | 12.13794 | 35087 ft | 499 kts | 130° |
| 2026-04-28 15:37 | 48.38111 | 12.22091 | 35105 ft | 500 kts | 130° |
| 2026-04-28 15:38 | 48.33904 | 12.30400 | 35098 ft | 500 kts | 130° |
| 2026-04-28 15:38 | 48.29683 | 12.38695 | 35100 ft | 499 kts | 131° |
| 2026-04-28 15:39 | 48.25445 | 12.46966 | 35106 ft | 499 kts | 131° |
| 2026-04-28 15:39 | 48.21232 | 12.55165 | 35101 ft | 499 kts | 131° |
| 2026-04-28 15:40 | 48.16964 | 12.63457 | 35101 ft | 500 kts | 130° |
| 2026-04-28 15:40 | 48.12687 | 12.71557 | 35104 ft | 497 kts | 134° |
| 2026-04-28 15:41 | 48.08212 | 12.79441 | 35099 ft | 497 kts | 134° |
| 2026-04-28 15:41 | 48.03841 | 12.87111 | 35101 ft | 499 kts | 134° |
| 2026-04-28 15:42 | 47.99330 | 12.95012 | 35108 ft | 500 kts | 134° |
| 2026-04-28 15:42 | 47.97103 | 12.98909 | 35299 ft | 501 kts | 134° |
| 2026-04-28 15:42 | 47.94838 | 13.02866 | 35548 ft | 500 kts | 134° |
| 2026-04-28 15:43 | 47.92576 | 13.06811 | 35756 ft | 500 kts | 134° |
| 2026-04-28 15:43 | 47.90319 | 13.10751 | 35947 ft | 501 kts | 134° |
| 2026-04-28 15:43 | 47.88054 | 13.14695 | 36164 ft | 500 kts | 134° |
| 2026-04-28 15:43 | 47.85796 | 13.18616 | 36420 ft | 499 kts | 134° |
| 2026-04-28 15:44 | 47.83536 | 13.22534 | 36629 ft | 499 kts | 134° |
| 2026-04-28 15:44 | 47.81269 | 13.26455 | 36766 ft | 500 kts | 134° |
| 2026-04-28 15:44 | 47.78999 | 13.30370 | 36914 ft | 500 kts | 134° |
| 2026-04-28 15:44 | 47.76729 | 13.34290 | 37082 ft | 501 kts | 134° |
| 2026-04-28 15:45 | 47.72177 | 13.42133 | 37119 ft | 501 kts | 134° |
| 2026-04-28 15:45 | 47.67615 | 13.49945 | 37099 ft | 500 kts | 134° |
| 2026-04-28 15:46 | 47.63065 | 13.57738 | 37085 ft | 502 kts | 134° |
| 2026-04-28 15:46 | 47.58478 | 13.65573 | 37082 ft | 502 kts | 134° |
| 2026-04-28 15:47 | 47.53891 | 13.73354 | 37088 ft | 500 kts | 134° |
| 2026-04-28 15:47 | 47.49318 | 13.81121 | 37084 ft | 501 kts | 134° |
| 2026-04-28 15:48 | 47.44748 | 13.88886 | 37092 ft | 502 kts | 134° |
| 2026-04-28 15:48 | 47.40128 | 13.96676 | 37086 ft | 505 kts | 134° |
| 2026-04-28 15:49 | 47.35513 | 14.04440 | 37077 ft | 502 kts | 134° |
| 2026-04-28 15:49 | 47.30915 | 14.12150 | 37088 ft | 501 kts | 134° |
| 2026-04-28 15:50 | 47.26303 | 14.19856 | 37085 ft | 501 kts | 134° |
| 2026-04-28 15:50 | 47.21674 | 14.27587 | 37086 ft | 504 kts | 134° |
| 2026-04-28 15:51 | 47.17041 | 14.35301 | 37092 ft | 503 kts | 134° |
| 2026-04-28 15:51 | 47.12400 | 14.42986 | 37085 ft | 502 kts | 134° |
| 2026-04-28 15:52 | 47.07765 | 14.50664 | 37071 ft | 502 kts | 134° |
| 2026-04-28 15:52 | 47.03138 | 14.58278 | 37076 ft | 498 kts | 134° |
| 2026-04-28 15:53 | 46.98655 | 14.65649 | 37082 ft | 501 kts | 134° |
| 2026-04-28 15:53 | 46.94049 | 14.73198 | 37091 ft | 500 kts | 134° |
| 2026-04-28 15:54 | 46.89414 | 14.80763 | 37078 ft | 500 kts | 134° |
| 2026-04-28 15:54 | 46.84764 | 14.88327 | 37102 ft | 497 kts | 134° |
| 2026-04-28 15:55 | 46.80152 | 14.95861 | 37084 ft | 497 kts | 134° |
| 2026-04-28 15:55 | 46.75550 | 15.03344 | 37100 ft | 495 kts | 134° |
| 2026-04-28 15:56 | 46.70946 | 15.10798 | 37102 ft | 495 kts | 135° |
| 2026-04-28 15:56 | 46.66284 | 15.18273 | 37111 ft | 495 kts | 136° |
| 2026-04-28 15:57 | 46.63783 | 15.21587 | 37102 ft | 490 kts | 147° |
| 2026-04-28 15:57 | 46.60974 | 15.24318 | 37113 ft | 487 kts | 153° |
| 2026-04-28 15:57 | 46.55165 | 15.29378 | 37088 ft | 485 kts | 154° |
| 2026-04-28 15:58 | 46.49398 | 15.34409 | 37105 ft | 483 kts | 153° |
| 2026-04-28 15:58 | 46.43650 | 15.39473 | 37107 ft | 484 kts | 153° |
| 2026-04-28 15:59 | 46.38820 | 15.43720 | 37108 ft | 484 kts | 153° |
| 2026-04-28 15:59 | 46.32122 | 15.49591 | 37082 ft | 485 kts | 153° |
| 2026-04-28 16:00 | 46.26363 | 15.54627 | 37103 ft | 483 kts | 153° |
| 2026-04-28 16:00 | 46.20599 | 15.59647 | 37098 ft | 483 kts | 153° |
| 2026-04-28 16:01 | 46.15054 | 15.65172 | 37096 ft | 488 kts | 143° |
| 2026-04-28 16:01 | 46.09899 | 15.71559 | 37094 ft | 489 kts | 142° |
| 2026-04-28 16:02 | 46.04749 | 15.77937 | 37086 ft | 488 kts | 143° |
| 2026-04-28 16:02 | 45.99594 | 15.84263 | 37087 ft | 488 kts | 143° |
| 2026-04-28 16:03 | 45.94408 | 15.90603 | 37098 ft | 488 kts | 143° |
| 2026-04-28 16:03 | 45.89241 | 15.96916 | 37096 ft | 488 kts | 143° |
| 2026-04-28 16:04 | 45.84057 | 16.03234 | 37083 ft | 489 kts | 143° |
| 2026-04-28 16:04 | 45.79755 | 16.08466 | 37074 ft | 488 kts | 143° |
| 2026-04-28 16:05 | 45.73709 | 16.15794 | 37082 ft | 488 kts | 143° |
| 2026-04-28 16:05 | 45.68529 | 16.22057 | 37095 ft | 488 kts | 143° |
| 2026-04-28 16:06 | 45.63336 | 16.28315 | 37092 ft | 488 kts | 143° |
| 2026-04-28 16:06 | 45.58131 | 16.34573 | 37092 ft | 488 kts | 143° |
| 2026-04-28 16:07 | 45.53810 | 16.39761 | 37078 ft | 489 kts | 143° |
| 2026-04-28 16:08 | 45.46003 | 16.49102 | 37086 ft | 488 kts | 143° |
| 2026-04-28 16:08 | 45.39949 | 16.56327 | 37084 ft | 489 kts | 143° |
| 2026-04-28 16:09 | 45.32961 | 16.64625 | 37063 ft | 488 kts | 143° |
| 2026-04-28 16:10 | 45.25162 | 16.73878 | 37080 ft | 487 kts | 143° |
| 2026-04-28 16:10 | 45.17339 | 16.83107 | 37073 ft | 488 kts | 143° |
| 2026-04-28 16:11 | 45.06900 | 16.95385 | 37066 ft | 486 kts | 143° |
| 2026-04-28 16:12 | 44.99084 | 17.04517 | 37075 ft | 486 kts | 143° |
| 2026-04-28 16:13 | 44.91261 | 17.13643 | 37079 ft | 486 kts | 143° |
| 2026-04-28 16:14 | 44.80824 | 17.25762 | 37077 ft | 485 kts | 143° |
| 2026-04-28 16:15 | 44.70428 | 17.37772 | 37071 ft | 486 kts | 143° |
| 2026-04-28 16:15 | 44.65188 | 17.43810 | 37063 ft | 486 kts | 143° |
| 2026-04-28 16:16 | 44.57346 | 17.52803 | 37049 ft | 484 kts | 143° |
| 2026-04-28 16:17 | 44.49505 | 17.61775 | 37055 ft | 485 kts | 143° |
| 2026-04-28 16:17 | 44.44275 | 17.67741 | 37047 ft | 485 kts | 143° |
| 2026-04-28 16:18 | 44.39039 | 17.73698 | 37047 ft | 485 kts | 143° |
| 2026-04-28 16:18 | 44.33751 | 17.79529 | 37036 ft | 484 kts | 144° |
| 2026-04-28 16:19 | 44.28438 | 17.85289 | 37040 ft | 484 kts | 144° |
| 2026-04-28 16:19 | 44.23121 | 17.91031 | 37036 ft | 484 kts | 144° |
| 2026-04-28 16:20 | 44.17796 | 17.96769 | 37022 ft | 484 kts | 144° |
| 2026-04-28 16:20 | 44.12468 | 18.02501 | 37007 ft | 484 kts | 144° |
| 2026-04-28 16:21 | 44.07147 | 18.08205 | 37023 ft | 484 kts | 144° |
| 2026-04-28 16:21 | 44.01808 | 18.13917 | 37021 ft | 484 kts | 144° |
| 2026-04-28 16:22 | 43.96464 | 18.19637 | 37019 ft | 485 kts | 144° |
| 2026-04-28 16:22 | 43.91113 | 18.25323 | 37023 ft | 484 kts | 144° |
| 2026-04-28 16:23 | 43.85772 | 18.31003 | 37019 ft | 483 kts | 144° |
| 2026-04-28 16:23 | 43.80452 | 18.36664 | 37029 ft | 483 kts | 144° |
| 2026-04-28 16:24 | 43.75110 | 18.42312 | 37028 ft | 483 kts | 144° |
| 2026-04-28 16:24 | 43.69774 | 18.47943 | 37022 ft | 483 kts | 144° |
| 2026-04-28 16:25 | 43.64432 | 18.53555 | 37026 ft | 482 kts | 145° |
| 2026-04-28 16:25 | 43.59098 | 18.59164 | 37019 ft | 482 kts | 144° |
| 2026-04-28 16:26 | 43.53765 | 18.64759 | 37018 ft | 482 kts | 145° |
| 2026-04-28 16:26 | 43.48422 | 18.70347 | 37019 ft | 482 kts | 145° |
| 2026-04-28 16:27 | 43.43082 | 18.75919 | 37001 ft | 482 kts | 144° |
| 2026-04-28 16:28 | 43.35075 | 18.84255 | 37019 ft | 481 kts | 145° |
| 2026-04-28 16:28 | 43.29741 | 18.89802 | 37015 ft | 481 kts | 145° |
| 2026-04-28 16:29 | 43.21766 | 18.98054 | 37018 ft | 481 kts | 145° |
| 2026-04-28 16:30 | 43.13746 | 19.06323 | 37017 ft | 481 kts | 145° |
| 2026-04-28 16:30 | 43.08398 | 19.11809 | 37022 ft | 481 kts | 145° |
| 2026-04-28 16:31 | 43.03041 | 19.17310 | 37032 ft | 481 kts | 145° |
| 2026-04-28 16:31 | 42.97696 | 19.22801 | 37027 ft | 481 kts | 145° |
| 2026-04-28 16:32 | 42.92339 | 19.28274 | 37023 ft | 481 kts | 145° |
| 2026-04-28 16:32 | 42.84305 | 19.36459 | 37026 ft | 480 kts | 145° |
| 2026-04-28 16:33 | 42.79857 | 19.40969 | 37026 ft | 480 kts | 145° |
| 2026-04-28 16:33 | 42.73593 | 19.47318 | 37016 ft | 480 kts | 145° |
| 2026-04-28 16:34 | 42.68250 | 19.52731 | 37026 ft | 479 kts | 145° |
| 2026-04-28 16:34 | 42.62897 | 19.58139 | 37034 ft | 479 kts | 145° |
| 2026-04-28 16:35 | 42.57546 | 19.63526 | 37033 ft | 479 kts | 145° |
| 2026-04-28 16:35 | 42.52201 | 19.68901 | 37044 ft | 479 kts | 145° |
| 2026-04-28 16:36 | 42.46837 | 19.74265 | 37034 ft | 479 kts | 145° |
| 2026-04-28 16:36 | 42.41477 | 19.79615 | 37046 ft | 479 kts | 145° |
| 2026-04-28 16:37 | 42.36130 | 19.84970 | 37033 ft | 479 kts | 145° |
| 2026-04-28 16:38 | 42.28079 | 19.92986 | 37040 ft | 479 kts | 145° |
| 2026-04-28 16:38 | 42.22716 | 19.98307 | 37052 ft | 479 kts | 145° |
| 2026-04-28 16:39 | 42.17348 | 20.03641 | 37044 ft | 479 kts | 145° |
| 2026-04-28 16:39 | 42.11972 | 20.08950 | 37045 ft | 479 kts | 145° |
| 2026-04-28 16:40 | 42.06604 | 20.14245 | 37056 ft | 479 kts | 145° |
| 2026-04-28 16:40 | 42.01262 | 20.19502 | 37040 ft | 478 kts | 145° |
| 2026-04-28 16:41 | 41.95904 | 20.24765 | 37056 ft | 477 kts | 145° |
| 2026-04-28 16:41 | 41.90504 | 20.30065 | 37067 ft | 477 kts | 146° |
| 2026-04-28 16:42 | 41.85140 | 20.35311 | 37071 ft | 477 kts | 146° |
| 2026-04-28 16:42 | 41.79806 | 20.40513 | 37060 ft | 477 kts | 146° |
| 2026-04-28 16:43 | 41.74438 | 20.45734 | 37054 ft | 477 kts | 146° |
| 2026-04-28 16:43 | 41.69073 | 20.50944 | 37061 ft | 477 kts | 145° |
| 2026-04-28 16:44 | 41.63800 | 20.56348 | 37061 ft | 477 kts | 143° |
| 2026-04-28 16:44 | 41.58595 | 20.61857 | 37047 ft | 478 kts | 143° |
| 2026-04-28 16:45 | 41.53376 | 20.67357 | 37049 ft | 478 kts | 143° |
| 2026-04-28 16:45 | 41.48180 | 20.72833 | 37048 ft | 476 kts | 143° |
| 2026-04-28 16:46 | 41.42966 | 20.78300 | 37053 ft | 477 kts | 143° |
| 2026-04-28 16:46 | 41.37745 | 20.83773 | 37067 ft | 478 kts | 143° |
| 2026-04-28 16:47 | 41.32517 | 20.89243 | 37064 ft | 478 kts | 143° |
| 2026-04-28 16:47 | 41.27276 | 20.94698 | 37055 ft | 479 kts | 143° |
| 2026-04-28 16:48 | 41.22047 | 21.00161 | 37061 ft | 477 kts | 143° |
| 2026-04-28 16:48 | 41.16814 | 21.05590 | 37054 ft | 478 kts | 143° |
| 2026-04-28 16:49 | 41.11574 | 21.11015 | 37047 ft | 478 kts | 143° |
| 2026-04-28 16:49 | 41.06329 | 21.16453 | 37039 ft | 478 kts | 143° |
| 2026-04-28 16:50 | 41.01124 | 21.21819 | 37027 ft | 477 kts | 143° |
| 2026-04-28 16:50 | 40.95879 | 21.27221 | 37048 ft | 477 kts | 143° |
| 2026-04-28 16:51 | 40.90633 | 21.32618 | 37040 ft | 477 kts | 143° |
| 2026-04-28 16:51 | 40.85152 | 21.37487 | 37046 ft | 474 kts | 154° |
| 2026-04-28 16:52 | 40.79601 | 21.42275 | 37055 ft | 477 kts | 145° |
| 2026-04-28 16:52 | 40.74225 | 21.47412 | 37047 ft | 477 kts | 146° |
| 2026-04-28 16:53 | 40.68819 | 21.52495 | 37049 ft | 477 kts | 146° |
| 2026-04-28 16:53 | 40.63407 | 21.57553 | 37061 ft | 479 kts | 146° |
| 2026-04-28 16:54 | 40.58909 | 21.61751 | 37061 ft | 477 kts | 146° |
| 2026-04-28 16:54 | 40.53493 | 21.66799 | 37073 ft | 477 kts | 146° |
| 2026-04-28 16:55 | 40.48080 | 21.71829 | 37086 ft | 476 kts | 146° |
| 2026-04-28 16:55 | 40.42683 | 21.76857 | 37098 ft | 476 kts | 146° |
| 2026-04-28 16:56 | 40.37261 | 21.81875 | 37116 ft | 477 kts | 146° |
| 2026-04-28 16:56 | 40.31836 | 21.86883 | 37113 ft | 478 kts | 146° |
| 2026-04-28 16:57 | 40.26397 | 21.91897 | 37104 ft | 478 kts | 146° |
| 2026-04-28 16:57 | 40.20972 | 21.96903 | 37108 ft | 477 kts | 146° |
| 2026-04-28 16:58 | 40.15550 | 22.01905 | 37099 ft | 477 kts | 146° |
| 2026-04-28 16:58 | 40.10116 | 22.06875 | 37094 ft | 477 kts | 146° |
| 2026-04-28 16:59 | 40.04684 | 22.11856 | 37079 ft | 477 kts | 146° |
| 2026-04-28 16:59 | 39.99245 | 22.16821 | 37077 ft | 477 kts | 146° |
| 2026-04-28 17:00 | 39.93807 | 22.21780 | 37078 ft | 477 kts | 146° |
| 2026-04-28 17:00 | 39.88363 | 22.26738 | 37082 ft | 477 kts | 146° |
| 2026-04-28 17:01 | 39.82936 | 22.31679 | 37082 ft | 477 kts | 146° |
| 2026-04-28 17:01 | 39.77499 | 22.36606 | 37066 ft | 476 kts | 146° |
| 2026-04-28 17:02 | 39.72061 | 22.41505 | 37065 ft | 475 kts | 146° |
| 2026-04-28 17:02 | 39.66645 | 22.46410 | 37072 ft | 475 kts | 146° |
| 2026-04-28 17:03 | 39.58496 | 22.53751 | 37064 ft | 475 kts | 146° |
| 2026-04-28 17:03 | 39.53058 | 22.58630 | 37065 ft | 475 kts | 146° |
| 2026-04-28 17:04 | 39.44910 | 22.65945 | 37073 ft | 476 kts | 146° |
| 2026-04-28 17:05 | 39.36743 | 22.73245 | 37082 ft | 476 kts | 146° |
| 2026-04-28 17:06 | 39.28579 | 22.80530 | 37085 ft | 476 kts | 146° |
| 2026-04-28 17:06 | 39.20417 | 22.87783 | 37084 ft | 476 kts | 146° |
| 2026-04-28 17:07 | 39.15001 | 22.92573 | 37083 ft | 475 kts | 146° |
| 2026-04-28 17:07 | 39.09555 | 22.97396 | 37088 ft | 475 kts | 146° |
| 2026-04-28 17:08 | 39.04103 | 23.02202 | 37090 ft | 475 kts | 146° |
| 2026-04-28 17:08 | 38.98655 | 23.07014 | 37084 ft | 475 kts | 146° |
| 2026-04-28 17:09 | 38.93194 | 23.11812 | 37107 ft | 475 kts | 146° |
| 2026-04-28 17:09 | 38.87735 | 23.16607 | 37098 ft | 476 kts | 147° |
| 2026-04-28 17:10 | 38.82269 | 23.21396 | 37095 ft | 476 kts | 146° |
| 2026-04-28 17:10 | 38.76805 | 23.26183 | 37102 ft | 476 kts | 147° |
| 2026-04-28 17:11 | 38.71334 | 23.30961 | 37097 ft | 476 kts | 147° |
| 2026-04-28 17:11 | 38.65854 | 23.35734 | 37097 ft | 476 kts | 147° |
| 2026-04-28 17:12 | 38.60390 | 23.40489 | 37097 ft | 476 kts | 147° |
| 2026-04-28 17:12 | 38.54907 | 23.45250 | 37100 ft | 476 kts | 147° |
| 2026-04-28 17:13 | 38.49435 | 23.49995 | 37098 ft | 477 kts | 147° |
| 2026-04-28 17:13 | 38.43933 | 23.54749 | 37094 ft | 478 kts | 147° |
| 2026-04-28 17:14 | 38.38431 | 23.59503 | 37093 ft | 478 kts | 147° |
| 2026-04-28 17:14 | 38.32919 | 23.64250 | 37093 ft | 478 kts | 147° |
| 2026-04-28 17:15 | 38.27413 | 23.68980 | 37090 ft | 478 kts | 147° |
| 2026-04-28 17:15 | 38.21897 | 23.73723 | 37092 ft | 478 kts | 147° |
| 2026-04-28 17:16 | 38.16535 | 23.78312 | 37097 ft | 477 kts | 147° |
| 2026-04-28 17:16 | 38.11035 | 23.83018 | 37090 ft | 476 kts | 147° |
| 2026-04-28 17:17 | 38.05537 | 23.87708 | 37094 ft | 476 kts | 147° |
| 2026-04-28 17:17 | 38.00036 | 23.92402 | 37098 ft | 476 kts | 147° |
| 2026-04-28 17:18 | 37.94536 | 23.97082 | 37110 ft | 476 kts | 147° |
| 2026-04-28 17:18 | 37.89031 | 24.01755 | 37110 ft | 476 kts | 147° |
| 2026-04-28 17:19 | 37.83516 | 24.06428 | 37111 ft | 476 kts | 147° |
| 2026-04-28 17:19 | 37.78011 | 24.11086 | 37106 ft | 477 kts | 147° |
| 2026-04-28 17:20 | 37.73424 | 24.14960 | 37099 ft | 477 kts | 147° |
| 2026-04-28 17:20 | 37.66975 | 24.20396 | 37079 ft | 477 kts | 147° |
| 2026-04-28 17:21 | 37.61411 | 24.24963 | 37084 ft | 478 kts | 152° |
| 2026-04-28 17:22 | 37.52745 | 24.31097 | 37081 ft | 478 kts | 152° |
| 2026-04-28 17:22 | 37.46904 | 24.35233 | 37079 ft | 478 kts | 152° |
| 2026-04-28 17:23 | 37.38233 | 24.41376 | 37071 ft | 480 kts | 152° |
| 2026-04-28 17:23 | 37.32413 | 24.45486 | 37073 ft | 480 kts | 152° |
| 2026-04-28 17:24 | 37.27560 | 24.48905 | 37071 ft | 479 kts | 152° |
| 2026-04-28 17:24 | 37.21764 | 24.52985 | 37070 ft | 478 kts | 152° |
| 2026-04-28 17:25 | 37.13094 | 24.59076 | 36652 ft | 471 kts | 152° |
| 2026-04-28 17:25 | 37.10207 | 24.61102 | 36080 ft | 470 kts | 152° |
| 2026-04-28 17:26 | 37.07350 | 24.63103 | 35528 ft | 469 kts | 152° |
| 2026-04-28 17:26 | 37.04503 | 24.65095 | 34995 ft | 468 kts | 152° |
| 2026-04-28 17:26 | 37.01702 | 24.67055 | 34479 ft | 467 kts | 152° |
| 2026-04-28 17:26 | 36.98873 | 24.69033 | 33942 ft | 466 kts | 151° |
| 2026-04-28 17:27 | 36.96005 | 24.71035 | 33363 ft | 464 kts | 151° |
| 2026-04-28 17:27 | 36.93238 | 24.72964 | 32853 ft | 460 kts | 151° |
| 2026-04-28 17:27 | 36.90455 | 24.74904 | 32355 ft | 456 kts | 151° |
| 2026-04-28 17:27 | 36.87687 | 24.76831 | 31833 ft | 453 kts | 151° |
| 2026-04-28 17:28 | 36.84942 | 24.78740 | 31352 ft | 450 kts | 151° |
| 2026-04-28 17:28 | 36.79502 | 24.82520 | 30392 ft | 445 kts | 150° |
| 2026-04-28 17:28 | 36.76810 | 24.84388 | 29887 ft | 442 kts | 150° |
| 2026-04-28 17:29 | 36.74128 | 24.86248 | 29321 ft | 440 kts | 150° |
| 2026-04-28 17:29 | 36.71464 | 24.88094 | 28794 ft | 437 kts | 150° |
| 2026-04-28 17:29 | 36.68818 | 24.89926 | 28310 ft | 433 kts | 150° |
| 2026-04-28 17:30 | 36.63591 | 24.93544 | 27368 ft | 426 kts | 150° |
| 2026-04-28 17:30 | 36.58439 | 24.97100 | 26412 ft | 421 kts | 150° |
| 2026-04-28 17:30 | 36.55880 | 24.98865 | 25935 ft | 419 kts | 150° |
| 2026-04-28 17:31 | 36.53337 | 25.00618 | 25485 ft | 417 kts | 150° |
| 2026-04-28 17:31 | 36.48292 | 25.04091 | 24571 ft | 413 kts | 152° |
| 2026-04-28 17:32 | 36.43277 | 25.07537 | 23617 ft | 411 kts | 152° |
| 2026-04-28 17:32 | 36.40775 | 25.09253 | 23080 ft | 409 kts | 152° |
| 2026-04-28 17:32 | 36.38297 | 25.10954 | 22578 ft | 407 kts | 152° |
| 2026-04-28 17:32 | 36.35818 | 25.12619 | 21951 ft | 404 kts | 156° |
| 2026-04-28 17:33 | 36.33165 | 25.13705 | 21070 ft | 401 kts | 168° |
| 2026-04-28 17:33 | 36.30462 | 25.14461 | 20370 ft | 396 kts | 170° |
| 2026-04-28 17:33 | 36.27783 | 25.15181 | 19645 ft | 392 kts | 169° |
| 2026-04-28 17:33 | 36.26886 | 25.15427 | 19431 ft | 390 kts | 169° |
| 2026-04-28 17:34 | 36.22526 | 25.16662 | 18336 ft | 383 kts | 168° |
| 2026-04-28 17:34 | 36.19941 | 25.17413 | 17613 ft | 379 kts | 168° |
| 2026-04-28 17:34 | 36.17395 | 25.18154 | 16913 ft | 375 kts | 168° |
| 2026-04-28 17:34 | 36.14877 | 25.18887 | 16278 ft | 370 kts | 168° |
| 2026-04-28 17:35 | 36.12382 | 25.19616 | 15626 ft | 365 kts | 168° |
| 2026-04-28 17:35 | 36.09928 | 25.20332 | 14984 ft | 361 kts | 168° |
| 2026-04-28 17:35 | 36.07499 | 25.21038 | 14363 ft | 356 kts | 168° |
| 2026-04-28 17:35 | 36.05097 | 25.21737 | 13748 ft | 352 kts | 168° |
| 2026-04-28 17:36 | 36.02737 | 25.22421 | 13217 ft | 344 kts | 168° |
| 2026-04-28 17:36 | 36.00444 | 25.23088 | 12817 ft | 334 kts | 168° |
| 2026-04-28 17:36 | 35.98204 | 25.23737 | 12506 ft | 327 kts | 168° |
| 2026-04-28 17:36 | 35.96004 | 25.24371 | 12178 ft | 323 kts | 168° |
| 2026-04-28 17:37 | 35.93815 | 25.25007 | 11846 ft | 323 kts | 168° |
| 2026-04-28 17:37 | 35.92377 | 25.25424 | 11637 ft | 322 kts | 167° |
| 2026-04-28 17:37 | 35.90191 | 25.26057 | 11303 ft | 322 kts | 167° |
| 2026-04-28 17:37 | 35.88012 | 25.26688 | 10989 ft | 321 kts | 167° |
| 2026-04-28 17:38 | 35.85841 | 25.27316 | 10650 ft | 320 kts | 167° |
| 2026-04-28 17:38 | 35.83706 | 25.27932 | 10451 ft | 311 kts | 167° |
| 2026-04-28 17:38 | 35.81632 | 25.28533 | 10265 ft | 303 kts | 167° |
| 2026-04-28 17:38 | 35.79587 | 25.29125 | 10036 ft | 300 kts | 167° |
| 2026-04-28 17:39 | 35.77572 | 25.29708 | 9708 ft | 296 kts | 167° |
| 2026-04-28 17:39 | 35.75571 | 25.30285 | 9376 ft | 295 kts | 167° |
| 2026-04-28 17:39 | 35.71557 | 25.31440 | 8692 ft | 297 kts | 167° |
| 2026-04-28 17:40 | 35.69545 | 25.32019 | 8372 ft | 297 kts | 166° |
| 2026-04-28 17:40 | 35.67531 | 25.32599 | 8071 ft | 297 kts | 166° |
| 2026-04-28 17:40 | 35.65521 | 25.33180 | 7765 ft | 297 kts | 167° |
| 2026-04-28 17:40 | 35.63511 | 25.33759 | 7466 ft | 296 kts | 167° |
| 2026-04-28 17:41 | 35.61504 | 25.34337 | 7140 ft | 297 kts | 167° |
| 2026-04-28 17:41 | 35.59492 | 25.34915 | 6796 ft | 296 kts | 167° |
| 2026-04-28 17:41 | 35.57489 | 25.35489 | 6454 ft | 294 kts | 167° |
| 2026-04-28 17:41 | 35.55505 | 25.36058 | 6089 ft | 293 kts | 167° |
| 2026-04-28 17:42 | 35.53523 | 25.36625 | 5728 ft | 291 kts | 167° |
| 2026-04-28 17:42 | 35.51553 | 25.37190 | 5389 ft | 289 kts | 167° |
| 2026-04-28 17:42 | 35.49605 | 25.37750 | 5068 ft | 289 kts | 167° |
| 2026-04-28 17:42 | 35.47648 | 25.38311 | 4799 ft | 286 kts | 167° |
| 2026-04-28 17:43 | 35.45742 | 25.38856 | 4620 ft | 276 kts | 166° |
| 2026-04-28 17:43 | 35.44010 | 25.39677 | 4636 ft | 257 kts | 151° |
| 2026-04-28 17:43 | 35.42485 | 25.40722 | 4690 ft | 252 kts | 149° |
| 2026-04-28 17:43 | 35.40959 | 25.41788 | 4646 ft | 252 kts | 150° |
| 2026-04-28 17:44 | 35.39429 | 25.42849 | 4688 ft | 253 kts | 150° |
| 2026-04-28 17:44 | 35.37881 | 25.43852 | 4643 ft | 252 kts | 158° |
| 2026-04-28 17:44 | 35.36182 | 25.44089 | 4525 ft | 242 kts | 194° |
| 2026-04-28 17:44 | 35.34769 | 25.43174 | 4300 ft | 223 kts | 232° |
| 2026-04-28 17:45 | 35.34132 | 25.41551 | 3990 ft | 209 kts | 263° |
| 2026-04-28 17:45 | 35.33756 | 25.39842 | 3597 ft | 207 kts | 256° |
| 2026-04-28 17:45 | 35.33337 | 25.38220 | 3403 ft | 192 kts | 256° |
| 2026-04-28 17:45 | 35.32949 | 25.36681 | 3097 ft | 187 kts | 257° |
| 2026-04-28 17:46 | 35.32760 | 25.35145 | 2770 ft | 180 kts | 276° |
| 2026-04-28 17:46 | 35.32870 | 25.33632 | 2450 ft | 177 kts | 278° |
| 2026-04-28 17:46 | 35.32982 | 25.32144 | 2152 ft | 171 kts | 278° |
| 2026-04-28 17:46 | 35.33081 | 25.30745 | 1994 ft | 157 kts | 278° |
| 2026-04-28 17:47 | 35.33175 | 25.29416 | 1967 ft | 157 kts | 279° |
| 2026-04-28 17:47 | 35.33270 | 25.28093 | 1821 ft | 153 kts | 277° |
| 2026-04-28 17:47 | 35.33352 | 25.26847 | 1555 ft | 140 kts | 278° |
| 2026-04-28 17:47 | 35.33409 | 25.26068 | 1393 ft | 138 kts | 279° |
| 2026-04-28 17:48 | 35.33523 | 25.24496 | 1113 ft | 140 kts | 281° |
| 2026-04-28 17:48 | 35.33604 | 25.23311 | 895 ft | 140 kts | 281° |
| 2026-04-28 17:48 | 35.33676 | 25.22141 | 672 ft | 137 kts | 278° |
| 2026-04-28 17:48 | 35.33763 | 25.20983 | 437 ft | 137 kts | 279° |
| 2026-04-28 17:49 | 35.33853 | 25.19831 | 263 ft | 135 kts | 277° |
| 2026-04-28 17:49 | 35.33922 | 25.18678 | 102 ft | 134 kts | 277° |
| 2026-04-28 17:49 | 35.34000 | 25.17713 | 98 ft | 85 kts | 276° |
| 2026-04-28 17:49 | 35.34033 | 25.17238 | 97 ft | 28 kts | 275° |
| 2026-04-28 17:50 | 35.33987 | 25.17074 | 96 ft | 17 kts | 238° |
| 2026-04-28 17:50 | 35.33946 | 25.17078 | 95 ft | 10 kts | 116° |
| 2026-04-28 17:50 | 35.33935 | 25.17172 | 96 ft | 12 kts | 95° |
| 2026-04-28 17:50 | 35.33926 | 25.17281 | 96 ft | 12 kts | 95° |
| 2026-04-28 17:51 | 35.33921 | 25.17364 | 96 ft | 7 kts | 95° |
| 2026-04-28 17:51 | 35.33916 | 25.17435 | 96 ft | 10 kts | 95° |
| 2026-04-28 17:51 | 35.33892 | 25.17499 | 96 ft | 9 kts | 162° |
| 2026-04-28 17:51 | 35.33829 | 25.17495 | 97 ft | 7 kts | 184° |
| 2026-04-28 17:52 | 35.33802 | 25.17459 | 96 ft | 6 kts | 280° |
| 2026-04-28 17:52 | 35.33810 | 25.17430 | 96 ft | 4 kts | 305° |
| 2026-04-28 17:52 | 35.33819 | 25.17418 | 96 ft | 0 kts | 316° |